Time;durP1;ratioP1;P1;durP2;ratioP2;P2;SDS_P1;SDS_P2;PMS_P1;PMS_P2;Temp;Humidity;BMP_temperature;BMP_pressure;BME280_temperature;BME280_humidity;BME280_pressure;Samples;Min_cycle;Max_cycle;Signal;HPM_P1;HPM_P2
2023/07/14 00:01:23;;;;;;;3.85;1.95;;;18.50;87.70;;;;;;10274443;28;20214;-96
2023/07/14 00:06:26;;;;;;;2.05;1.60;;;18.00;96.70;;;;;;10290210;28;20265;-96
2023/07/14 00:11:28;;;;;;;4.85;1.92;;;17.60;94.70;;;;;;10301983;28;20230;-96
2023/07/14 00:16:31;;;;;;;3.95;2.17;;;;;;;;;;10321506;28;20209;-96
2023/07/14 00:21:33;;;;;;;3.28;2.00;;;17.30;95.60;;;;;;10311938;28;20211;-96
2023/07/14 00:26:36;;;;;;;6.43;2.15;;;;;;;;;;10292023;28;20569;-96
2023/07/14 00:31:39;;;;;;;6.18;2.00;;;16.60;98.30;;;;;;10289424;28;20210;-96
2023/07/14 00:36:41;;;;;;;3.67;2.08;;;16.60;99.50;;;;;;10268083;29;20805;-96
2023/07/14 00:41:44;;;;;;;6.57;2.13;;;;;;;;;;10299860;28;20628;-96
2023/07/14 00:46:48;;;;;;;1.63;1.52;;;16.40;99.90;;;;;;10299186;28;20210;-96
2023/07/14 00:51:52;;;;;;;6.40;1.77;;;16.40;99.90;;;;;;10300547;28;20692;-96
2023/07/14 00:56:55;;;;;;;2.28;1.80;;;16.30;99.90;;;;;;10321612;28;20214;-96
2023/07/14 01:02:10;;;;;;;2.10;1.60;;;16.40;99.90;;;;;;10317378;28;20669;-96
2023/07/14 01:07:15;;;;;;;1.88;1.65;;;16.40;99.90;;;;;;10288177;28;20641;-96
2023/07/14 01:12:22;;;;;;;2.95;2.35;;;16.60;99.90;;;;;;10295449;28;20780;-96
2023/07/14 01:17:25;;;;;;;2.65;2.45;;;16.50;99.90;;;;;;10273565;28;20238;-96
2023/07/14 01:22:52;;;;;;;4.47;2.90;;;16.10;99.90;;;;;;10299404;28;20634;-96
2023/07/14 01:27:55;;;;;;;3.28;2.97;;;16.10;99.90;;;;;;10278987;28;20226;-96
2023/07/14 01:32:57;;;;;;;2.85;2.63;;;15.80;99.90;;;;;;10279553;29;20211;-96
2023/07/14 01:38:00;;;;;;;3.58;2.53;;;;;;;;;;10283871;28;20258;-96
2023/07/14 01:43:06;;;;;;;5.80;2.92;;;15.50;99.90;;;;;;10282809;28;20261;-96
2023/07/14 01:48:13;;;;;;;7.03;3.35;;;15.40;99.90;;;;;;10278798;28;20618;-96
2023/07/14 01:53:26;;;;;;;3.25;2.40;;;15.40;99.90;;;;;;10289725;28;20582;-96
2023/07/14 01:58:37;;;;;;;4.78;3.05;;;15.30;99.90;;;;;;10279669;28;20197;-96
2023/07/14 02:03:43;;;;;;;4.18;2.60;;;15.30;99.90;;;;;;10299064;28;20202;-96
2023/07/14 02:08:46;;;;;;;3.13;2.40;;;15.20;99.90;;;;;;10305017;28;20264;-96
2023/07/14 02:13:55;;;;;;;4.53;2.75;;;15.80;99.90;;;;;;10315113;28;20199;-96
2023/07/14 02:18:58;;;;;;;2.80;2.60;;;15.90;99.90;;;;;;10280294;28;20214;-96
2023/07/14 02:24:01;;;;;;;7.93;3.83;;;15.60;99.90;;;;;;10276020;28;20260;-96
2023/07/14 02:29:10;;;;;;;3.97;3.00;;;15.40;99.90;;;;;;10282084;28;20253;-96
2023/07/14 02:34:15;;;;;;;7.70;3.47;;;15.20;99.90;;;;;;10265516;28;20214;-96
2023/07/14 02:39:18;;;;;;;3.53;3.05;;;15.20;99.90;;;;;;10252310;28;20226;-96
2023/07/14 02:44:25;;;;;;;3.10;2.90;;;15.00;99.90;;;;;;10241751;29;20210;-96
2023/07/14 02:49:28;;;;;;;3.80;2.80;;;15.00;99.90;;;;;;10288425;28;20263;-96
2023/07/14 02:54:30;;;;;;;4.20;2.70;;;14.90;99.90;;;;;;10324452;28;20225;-96
2023/07/14 02:59:33;;;;;;;2.95;1.88;;;14.80;99.90;;;;;;10306686;28;20214;-96
2023/07/14 03:04:36;;;;;;;3.33;2.00;;;15.00;99.90;;;;;;10302020;28;20694;-96
2023/07/14 03:09:38;;;;;;;4.85;2.28;;;15.50;99.90;;;;;;10279593;28;20280;-95
2023/07/14 03:14:40;;;;;;;3.55;2.35;;;15.30;99.90;;;;;;10295161;28;20771;-94
2023/07/14 03:19:43;;;;;;;1.95;1.75;;;15.20;99.90;;;;;;10295099;28;20549;-95
2023/07/14 03:24:46;;;;;;;2.00;1.90;;;15.30;99.90;;;;;;10277657;28;20214;-94
2023/07/14 03:29:48;;;;;;;1.75;1.48;;;15.50;99.90;;;;;;10281499;28;20270;-96
2023/07/14 03:34:51;;;;;;;5.55;2.53;;;15.60;99.90;;;;;;10284887;28;20237;-96
2023/07/14 03:39:53;;;;;;;3.00;1.85;;;15.80;99.90;;;;;;10255522;29;20222;-96
2023/07/14 03:44:56;;;;;;;2.40;1.33;;;15.70;99.90;;;;;;10271094;28;20242;-96
2023/07/14 03:49:59;;;;;;;8.13;2.17;;;15.90;99.90;;;;;;10260185;29;20234;-96
2023/07/14 03:55:01;;;;;;;2.45;1.55;;;15.90;99.90;;;;;;10262433;29;20266;-96
2023/07/14 04:00:13;;;;;;;1.63;1.38;;;16.20;99.90;;;;;;10320665;28;20213;-96
2023/07/14 04:05:25;;;;;;;2.42;2.10;;;16.40;99.90;;;;;;10304873;28;20228;-96
2023/07/14 04:10:32;;;;;;;3.38;1.60;;;16.70;99.90;;;;;;10292898;28;20238;-96
2023/07/14 04:15:34;;;;;;;1.75;0.98;;;16.90;99.90;;;;;;10271407;29;20206;-96
2023/07/14 04:20:37;;;;;;;1.60;1.20;;;17.20;99.90;;;;;;10316606;28;20217;-96
2023/07/14 04:25:39;;;;;;;4.88;1.95;;;17.70;99.90;;;;;;10317433;28;20214;-96
2023/07/14 04:30:42;;;;;;;2.20;1.48;;;17.90;99.90;;;;;;10284735;28;20234;-96
2023/07/14 04:35:44;;;;;;;2.85;1.67;;;18.10;99.80;;;;;;10300703;28;20234;-96
2023/07/14 04:40:47;;;;;;;4.55;1.73;;;;;;;;;;10304857;28;20676;-96
2023/07/14 04:45:51;;;;;;;3.97;1.38;;;18.60;95.90;;;;;;10264680;23;20280;-86
2023/07/14 04:50:55;;;;;;;2.10;1.30;;;;;;;;;;10247651;29;20254;-85
2023/07/14 04:55:57;;;;;;;2.60;1.52;;;19.10;96.00;;;;;;10249859;29;20246;-86
2023/07/14 05:01:01;;;;;;;1.52;0.93;;;19.50;95.60;;;;;;10247551;29;20242;-87
2023/07/14 05:06:04;;;;;;;2.28;1.23;;;19.70;95.50;;;;;;10243245;29;20297;-86
2023/07/14 05:11:07;;;;;;;3.75;1.33;;;20.10;90.70;;;;;;10246642;28;20306;-86
2023/07/14 05:16:09;;;;;;;1.30;1.13;;;20.10;87.60;;;;;;10244724;29;20289;-86
2023/07/14 05:21:12;;;;;;;1.67;1.13;;;20.20;90.40;;;;;;10232196;29;20297;-86
2023/07/14 05:26:15;;;;;;;2.03;1.23;;;20.40;85.40;;;;;;10231180;29;20250;-86
2023/07/14 05:31:18;;;;;;;1.88;1.45;;;20.40;87.20;;;;;;10233135;28;20258;-86
2023/07/14 05:36:21;;;;;;;2.08;1.33;;;20.60;89.40;;;;;;10246366;29;20632;-86
2023/07/14 05:41:23;;;;;;;2.30;1.08;;;21.00;84.60;;;;;;10246720;29;20250;-86
2023/07/14 05:46:26;;;;;;;1.35;1.25;;;21.10;86.00;;;;;;10229469;29;20775;-85
2023/07/14 05:51:29;;;;;;;1.30;1.20;;;20.90;85.50;;;;;;10244551;28;20736;-86
2023/07/14 05:56:32;;;;;;;1.58;1.42;;;21.00;85.90;;;;;;10244959;29;20245;-86
2023/07/14 06:01:35;;;;;;;2.55;1.33;;;20.90;86.70;;;;;;10246548;28;20756;-86
2023/07/14 06:06:38;;;;;;;3.67;2.20;;;21.10;83.80;;;;;;10246534;29;20289;-86
2023/07/14 06:11:41;;;;;;;1.60;1.25;;;20.90;78.90;;;;;;10246784;28;20325;-86
2023/07/14 06:16:43;;;;;;;1.75;1.55;;;21.00;84.80;;;;;;10213842;29;20238;-86
2023/07/14 06:21:46;;;;;;;2.42;1.70;;;21.10;84.40;;;;;;10244598;28;20784;-85
2023/07/14 06:26:49;;;;;;;1.75;1.65;;;21.10;79.80;;;;;;10245812;29;20486;-86
2023/07/14 06:31:51;;;;;;;3.20;1.63;;;20.70;83.50;;;;;;10229032;29;20257;-85
2023/07/14 06:36:54;;;;;;;2.47;2.17;;;20.80;88.40;;;;;;10227353;29;20241;-86
2023/07/14 06:41:56;;;;;;;5.57;1.50;;;20.90;82.80;;;;;;10245032;29;20324;-85
2023/07/14 06:47:00;;;;;;;3.28;1.70;;;21.30;81.40;;;;;;10227134;29;20625;-87
2023/07/14 06:52:03;;;;;;;2.78;1.38;;;21.70;78.00;;;;;;10245028;29;20324;-85
2023/07/14 06:57:08;;;;;;;2.78;1.88;;;21.90;77.00;;;;;;10242965;29;20289;-85
2023/07/14 07:02:14;;;;;;;1.50;1.40;;;22.30;76.90;;;;;;10249246;28;20292;-87
2023/07/14 07:07:17;;;;;;;3.03;1.35;;;22.60;71.40;;;;;;10215952;29;20249;-86
2023/07/14 07:12:21;;;;;;;2.05;1.70;;;22.80;68.60;;;;;;10244637;28;20262;-87
2023/07/14 07:17:23;;;;;;;2.92;2.03;;;23.20;67.60;;;;;;10235984;28;20237;-86
2023/07/14 07:22:26;;;;;;;4.85;3.20;;;23.00;64.00;;;;;;10249027;28;20326;-87
2023/07/14 07:27:29;;;;;;;1.70;1.42;;;22.80;61.20;;;;;;10244252;29;20277;-86
2023/07/14 07:32:32;;;;;;;1.73;1.38;;;22.70;64.30;;;;;;10243501;28;20258;-87
2023/07/14 07:37:34;;;;;;;1.60;1.50;;;22.90;66.50;;;;;;10234281;28;20733;-86
2023/07/14 07:42:37;;;;;;;2.45;1.60;;;23.00;63.40;;;;;;10250140;29;20265;-86
2023/07/14 07:47:40;;;;;;;1.67;1.58;;;23.30;62.80;;;;;;10250461;29;20242;-86
2023/07/14 07:52:44;;;;;;;2.20;1.85;;;23.60;60.10;;;;;;10248022;28;20257;-86
2023/07/14 07:57:47;;;;;;;2.03;1.50;;;23.60;55.10;;;;;;10232650;29;20233;-86
2023/07/14 08:02:49;;;;;;;2.20;1.85;;;23.70;57.70;;;;;;10308171;23;20273;-87
2023/07/14 08:07:52;;;;;;;3.28;2.15;;;24.30;56.10;;;;;;10287606;28;20245;-88
2023/07/14 08:12:55;;;;;;;3.35;1.63;;;24.20;47.80;;;;;;10289275;28;20658;-87
2023/07/14 08:17:57;;;;;;;3.45;1.80;;;24.20;49.70;;;;;;10338140;23;20725;-87
2023/07/14 08:23:04;;;;;;;1.50;1.40;;;24.00;46.10;;;;;;10324538;28;20244;-87
2023/07/14 08:28:08;;;;;;;1.30;1.20;;;24.50;50.00;;;;;;10311931;28;20283;-87
2023/07/14 08:33:11;;;;;;;3.15;1.65;;;24.70;47.40;;;;;;10316681;28;20323;-84
2023/07/14 08:38:14;;;;;;;2.97;1.30;;;24.50;46.40;;;;;;10323129;28;20245;-85
2023/07/14 08:43:36;;;;;;;2.15;1.88;;;24.90;47.50;;;;;;10321927;28;20271;-87
2023/07/14 08:48:45;;;;;;;3.10;1.20;;;25.00;40.60;;;;;;10321440;28;20261;-85
2023/07/14 08:53:55;;;;;;;1.30;1.20;;;25.00;45.70;;;;;;10308159;28;20287;-85
2023/07/14 08:58:58;;;;;;;1.65;1.23;;;25.20;42.20;;;;;;10295750;23;20242;-96
2023/07/14 09:04:25;;;;;;;3.05;1.35;;;25.30;41.10;;;;;;10262295;28;20222;-96
2023/07/14 09:09:33;;;;;;;1.92;1.30;;;25.60;43.90;;;;;;10261672;29;20273;-96
2023/07/14 09:15:10;;;;;;;1.63;1.40;;;25.50;38.70;;;;;;10261104;29;20262;-96
2023/07/14 09:20:22;;;;;;;2.63;1.42;;;25.30;36.20;;;;;;10252326;28;20218;-96
2023/07/14 09:26:04;;;;;;;1.38;1.17;;;25.20;29.60;;;;;;10252078;28;20586;-96
2023/07/14 09:31:25;;;;;;;1.85;1.50;;;25.10;40.30;;;;;;10196552;29;20268;-96
2023/07/14 09:36:28;;;;;;;2.08;1.45;;;25.30;38.60;;;;;;10166989;29;20209;-96
2023/07/14 09:41:31;;;;;;;1.35;1.20;;;25.40;34.10;;;;;;10203384;29;20211;-96
2023/07/14 09:46:44;;;;;;;1.33;1.23;;;25.50;40.60;;;;;;10203718;29;20246;-96
2023/07/14 09:52:11;;;;;;;1.27;1.00;;;25.50;31.40;;;;;;10201402;29;20236;-96
2023/07/14 09:57:14;;;;;;;1.27;1.17;;;25.40;34.00;;;;;;10162223;29;20282;-96
2023/07/14 10:02:36;;;;;;;2.10;1.10;;;25.60;36.90;;;;;;10173405;29;20275;-93
2023/07/14 10:07:42;;;;;;;1.75;1.20;;;25.80;37.60;;;;;;10242051;28;20237;-93
2023/07/14 10:12:47;;;;;;;1.50;1.38;;;25.80;29.80;;;;;;10227436;29;20254;-95
2023/07/14 10:17:54;;;;;;;1.42;1.33;;;25.80;33.90;;;;;;10240648;29;20617;-94
2023/07/14 10:22:58;;;;;;;2.10;1.30;;;25.80;36.40;;;;;;10247275;29;20304;-96
2023/07/14 10:28:11;;;;;;;1.30;1.20;;;25.80;31.30;;;;;;10255110;29;20215;-96
2023/07/14 10:33:46;;;;;;;2.05;1.65;;;25.90;33.20;;;;;;10266000;29;20238;-96
2023/07/14 10:39:00;;;;;;;1.50;1.40;;;25.80;32.50;;;;;;10271875;29;20194;-95
2023/07/14 10:44:11;;;;;;;1.52;1.42;;;25.90;32.20;;;;;;10297394;28;20233;-96
2023/07/14 10:49:22;;;;;;;3.10;1.25;;;25.70;33.90;;;;;;10279063;29;20237;-96
2023/07/14 10:54:46;;;;;;;8.93;1.48;;;25.80;31.90;;;;;;10253184;29;20210;-96
2023/07/14 10:59:57;;;;;;;1.58;1.48;;;26.00;26.50;;;;;;10250343;28;20241;-94
2023/07/14 11:05:03;;;;;;;1.73;1.40;;;26.00;30.70;;;;;;10247018;28;20285;-95
2023/07/14 11:10:21;;;;;;;2.22;1.30;;;26.20;31.30;;;;;;10250743;28;20257;-93
2023/07/14 11:15:35;;;;;;;1.67;1.30;;;25.90;21.50;;;;;;10250396;29;20296;-91
2023/07/14 11:21:09;;;;;;;1.48;1.38;;;26.00;30.50;;;;;;10251664;28;20237;-94
2023/07/14 11:26:16;;;;;;;1.30;1.20;;;26.10;30.10;;;;;;10255089;29;20632;-94
2023/07/14 11:31:24;;;;;;;1.98;1.17;;;26.00;26.40;;;;;;10234864;29;20325;-94
2023/07/14 11:36:36;;;;;;;1.20;1.10;;;26.20;29.80;;;;;;10252191;28;20242;-94
2023/07/14 11:41:39;;;;;;;1.48;1.38;;;26.20;28.30;;;;;;10259261;28;20250;-94
2023/07/14 11:46:43;;;;;;;1.30;1.20;;;26.40;27.80;;;;;;10253650;29;20682;-94
2023/07/14 11:51:50;;;;;;;3.30;1.70;;;26.40;27.70;;;;;;10249892;28;20959;-94
2023/07/14 11:57:06;;;;;;;3.58;1.30;;;26.20;26.00;;;;;;10256516;28;20305;-94
2023/07/14 12:02:29;;;;;;;1.60;1.50;;;26.10;24.10;;;;;;10245440;29;20263;-96
2023/07/14 12:07:34;;;;;;;2.25;1.45;;;26.40;23.20;;;;;;10253022;28;20652;-94
2023/07/14 12:12:39;;;;;;;1.85;1.75;;;26.70;25.60;;;;;;10253081;29;20257;-96
2023/07/14 12:17:45;;;;;;;1.10;1.05;;;26.80;24.40;;;;;;10252406;29;20610;-96
2023/07/14 12:23:12;;;;;;;7.95;1.70;;;26.70;25.00;;;;;;10235557;29;20680;-96
2023/07/14 12:28:20;;;;;;;1.60;1.40;;;26.90;23.80;;;;;;10245577;29;20320;-95
2023/07/14 12:33:24;;;;;;;2.47;1.92;;;26.90;23.90;;;;;;10253113;29;20261;-96
2023/07/14 12:38:27;;;;;;;1.33;1.23;;;26.90;21.00;;;;;;10253307;28;20285;-96
2023/07/14 12:43:43;;;;;;;2.05;1.85;;;26.80;26.80;;;;;;10215188;29;20238;-95
2023/07/14 12:48:46;;;;;;;2.03;1.58;;;26.60;25.10;;;;;;10233378;29;20264;-96
2023/07/14 12:54:00;;;;;;;3.22;1.45;;;26.50;16.30;;;;;;10251906;29;20265;-95
2023/07/14 12:59:03;;;;;;;1.60;1.50;;;26.40;23.80;;;;;;10251320;29;20261;-95
2023/07/14 13:04:08;;;;;;;2.53;1.52;;;26.30;24.90;;;;;;10251370;29;20238;-95
2023/07/14 13:09:24;;;;;;;2.22;1.08;;;26.40;23.40;;;;;;10245334;29;20242;-96
2023/07/14 13:14:35;;;;;;;1.52;1.42;;;26.20;22.00;;;;;;10249857;29;20319;-96
2023/07/14 13:19:40;;;;;;;12.05;1.33;;;26.20;23.70;;;;;;10229781;29;20292;-91
2023/07/14 13:25:14;;;;;;;1.88;1.13;;;26.10;18.90;;;;;;10226197;29;20301;-94
2023/07/14 13:30:30;;;;;;;3.65;1.35;;;26.10;22.20;;;;;;10236302;29;20258;-92
2023/07/14 13:35:32;;;;;;;1.52;1.33;;;26.30;23.10;;;;;;10250789;29;20206;-92
2023/07/14 13:40:40;;;;;;;4.10;1.90;;;26.30;22.10;;;;;;10232018;29;20242;-94
2023/07/14 13:45:44;;;;;;;1.92;1.50;;;26.40;18.70;;;;;;10232811;29;20249;-95
2023/07/14 13:50:46;;;;;;;1.83;1.65;;;26.50;15.70;;;;;;10233763;29;20238;-95
2023/07/14 13:55:49;;;;;;;2.08;1.20;;;26.50;14.20;;;;;;10248679;28;20702;-94
2023/07/14 14:00:53;;;;;;;1.83;1.63;;;26.60;17.10;;;;;;10249840;28;20238;-95
2023/07/14 14:05:56;;;;;;;3.42;1.60;;;26.60;16.30;;;;;;10234516;29;20277;-93
2023/07/14 14:10:59;;;;;;;3.00;1.40;;;26.50;16.40;;;;;;10235368;29;20230;-96
2023/07/14 14:16:05;;;;;;;2.63;1.38;;;26.40;16.90;;;;;;10248388;29;20233;-95
2023/07/14 14:21:09;;;;;;;2.00;1.45;;;26.40;18.50;;;;;;10216213;29;20243;-96
2023/07/14 14:26:13;;;;;;;2.47;1.58;;;26.10;13.70;;;;;;10232561;29;20274;-95
2023/07/14 14:31:16;;;;;;;2.80;1.80;;;26.20;16.20;;;;;;10249853;28;20288;-96
2023/07/14 14:36:20;;;;;;;2.92;1.70;;;26.40;13.70;;;;;;10232758;28;20214;-96
2023/07/14 14:41:27;;;;;;;3.30;1.73;;;26.50;15.30;;;;;;10233884;29;20574;-95
2023/07/14 14:46:30;;;;;;;2.50;1.40;;;26.50;17.60;;;;;;10231547;29;20269;-96
2023/07/14 14:51:32;;;;;;;5.03;1.60;;;26.40;14.90;;;;;;10250777;28;20739;-96
2023/07/14 14:56:40;;;;;;;3.13;1.98;;;26.40;15.30;;;;;;10233129;29;20234;-96
2023/07/14 15:01:45;;;;;;;3.47;1.65;;;26.40;16.70;;;;;;10233375;29;20268;-96
2023/07/14 15:06:49;;;;;;;1.63;1.33;;;26.30;15.60;;;;;;10249426;28;20222;-94
2023/07/14 15:11:55;;;;;;;5.85;1.60;;;26.20;17.20;;;;;;10231407;29;20650;-95
2023/07/14 15:17:00;;;;;;;2.50;1.77;;;26.30;16.60;;;;;;10235762;29;20206;-96
2023/07/14 15:22:20;;;;;;;3.20;1.90;;;26.20;13.40;;;;;;10236354;29;20273;-96
2023/07/14 15:27:32;;;;;;;3.35;1.98;;;26.00;17.70;;;;;;10235220;29;20218;-94
2023/07/14 15:32:35;;;;;;;2.50;1.92;;;25.90;17.20;;;;;;10219358;29;20483;-95
2023/07/14 15:37:41;;;;;;;3.00;1.52;;;26.10;14.70;;;;;;10217781;28;20238;-95
2023/07/14 15:42:44;;;;;;;7.45;2.05;;;26.20;17.80;;;;;;10234819;29;20218;-94
2023/07/14 15:47:49;;;;;;;5.30;1.65;;;26.20;17.70;;;;;;10234814;29;20214;-94
2023/07/14 15:52:56;;;;;;;2.25;2.05;;;26.40;20.40;;;;;;10235847;28;20278;-95
2023/07/14 15:57:59;;;;;;;4.50;1.88;;;26.40;18.80;;;;;;10261787;28;20649;-95
2023/07/14 16:03:02;;;;;;;2.67;1.80;;;26.30;15.30;;;;;;10241310;29;20273;-95
2023/07/14 16:08:08;;;;;;;2.85;1.80;;;25.90;14.60;;;;;;10247550;28;20202;-96
2023/07/14 16:13:14;;;;;;;1.45;1.35;;;25.90;16.60;;;;;;10274942;28;20222;-96
2023/07/14 16:18:17;;;;;;;1.80;1.70;;;25.90;16.90;;;;;;10290833;28;20195;-95
2023/07/14 16:23:26;;;;;;;5.78;1.88;;;26.00;17.00;;;;;;10289647;28;20206;-95
2023/07/14 16:28:29;;;;;;;1.75;1.50;;;26.10;17.60;;;;;;10290006;28;20182;-94
2023/07/14 16:33:31;;;;;;;3.53;1.88;;;26.30;20.00;;;;;;10289828;28;20230;-96
2023/07/14 16:38:34;;;;;;;1.88;1.75;;;26.50;18.80;;;;;;10289118;28;20194;-95
2023/07/14 16:43:37;;;;;;;2.10;1.80;;;26.60;19.60;;;;;;10304780;28;20222;-94
2023/07/14 16:48:39;;;;;;;1.90;1.60;;;26.70;18.60;;;;;;10289002;28;20187;-95
2023/07/14 16:53:42;;;;;;;3.55;1.65;;;26.70;20.40;;;;;;10288928;28;20226;-95
2023/07/14 16:58:46;;;;;;;2.60;2.03;;;26.70;19.20;;;;;;10288366;28;20221;-95
2023/07/14 17:03:49;;;;;;;1.92;1.75;;;26.70;14.10;;;;;;10288399;28;20222;-95
2023/07/14 17:08:52;;;;;;;2.50;2.28;;;26.70;20.50;;;;;;10287095;28;20222;-87
2023/07/14 17:13:57;;;;;;;2.95;1.63;;;26.70;14.50;;;;;;10303086;28;20246;-84
2023/07/14 17:19:01;;;;;;;5.47;1.70;;;26.40;13.40;;;;;;10303078;28;20191;-83
2023/07/14 17:24:03;;;;;;;3.45;2.08;;;26.30;13.90;;;;;;10302510;28;20198;-85
2023/07/14 17:29:35;;;;;;;4.18;2.42;;;26.20;14.50;;;;;;10303635;28;20210;-88
2023/07/14 17:34:38;;;;;;;3.20;1.73;;;26.00;14.50;;;;;;10283635;28;20222;-88
2023/07/14 17:39:43;;;;;;;3.05;1.30;;;26.00;15.20;;;;;;10302299;28;20183;-87
2023/07/14 17:44:49;;;;;;;2.30;1.58;;;26.00;15.90;;;;;;10299228;28;20186;-89
2023/07/14 17:49:56;;;;;;;4.07;1.80;;;25.70;16.90;;;;;;10301964;23;20253;-86
2023/07/14 17:55:00;;;;;;;4.80;2.08;;;25.40;18.00;;;;;;10313400;28;20237;-85
2023/07/14 18:00:04;;;;;;;3.15;2.03;;;25.00;17.90;;;;;;10321783;28;20249;-87
2023/07/14 18:05:14;;;;;;;2.42;1.70;;;24.70;19.10;;;;;;10256278;28;20693;-87
2023/07/14 18:10:18;;;;;;;2.17;1.65;;;24.40;21.20;;;;;;10294236;28;20223;-87
2023/07/14 18:15:31;;;;;;;3.28;2.08;;;24.10;21.80;;;;;;10304527;28;20233;-88
2023/07/14 18:20:36;;;;;;;2.72;2.05;;;23.70;22.50;;;;;;10320392;28;20246;-89
2023/07/14 18:25:38;;;;;;;3.42;1.60;;;23.40;22.90;;;;;;10289280;29;20210;-86
2023/07/14 18:30:41;;;;;;;5.05;2.20;;;23.20;25.10;;;;;;9910477;28;10000254;-84
2023/07/14 18:35:45;;;;;;;4.00;2.53;;;22.80;26.40;;;;;;10250447;29;20234;-84
2023/07/14 18:40:49;;;;;;;6.47;2.33;;;22.60;29.30;;;;;;10236161;29;20701;-84
2023/07/14 18:45:52;;;;;;;3.88;2.22;;;22.30;30.60;;;;;;10249737;29;20262;-84
2023/07/14 18:51:16;;;;;;;2.58;1.48;;;22.00;32.00;;;;;;10278868;28;20357;-83
2023/07/14 18:56:20;;;;;;;5.47;3.05;;;21.70;35.80;;;;;;10273261;28;20688;-82
2023/07/14 19:01:23;;;;;;;11.80;3.97;;;21.50;37.90;;;;;;10289416;28;20233;-84
2023/07/14 19:06:26;;;;;;;9.40;3.83;;;21.30;39.50;;;;;;10289517;28;20217;-84
2023/07/14 19:11:29;;;;;;;8.68;4.32;;;21.10;41.10;;;;;;10286840;28;21012;-83
2023/07/14 19:16:32;;;;;;;16.23;4.65;;;20.90;42.30;;;;;;10286885;28;20225;-82
2023/07/14 19:21:34;;;;;;;3.28;2.85;;;20.70;44.20;;;;;;10283862;28;20260;-84
2023/07/14 19:26:37;;;;;;;15.95;3.00;;;20.50;46.90;;;;;;10284536;28;20245;-84
2023/07/14 19:31:43;;;;;;;14.95;3.35;;;20.60;50.60;;;;;;10274147;28;20261;-84
2023/07/14 19:36:46;;;;;;;7.43;2.35;;;20.40;53.50;;;;;;10276256;28;20241;-84
2023/07/14 19:41:53;;;;;;;3.25;1.98;;;20.20;57.50;;;;;;10319349;23;20265;-85
2023/07/14 19:46:56;;;;;;;3.63;2.28;;;20.00;59.40;;;;;;10272791;28;20260;-87
2023/07/14 19:51:59;;;;;;;15.07;2.95;;;19.90;65.10;;;;;;10296218;28;20265;-86
2023/07/14 19:57:02;;;;;;;12.88;3.38;;;19.70;65.80;;;;;;10304060;28;20209;-84
2023/07/14 20:02:22;;;;;;;6.20;2.47;;;19.50;68.70;;;;;;10292667;28;20237;-82
2023/07/14 20:07:25;;;;;;;6.10;3.17;;;19.30;71.00;;;;;;10283322;28;20671;-83
2023/07/14 20:12:28;;;;;;;7.45;2.92;;;19.00;73.50;;;;;;10292981;28;20319;-82
2023/07/14 20:17:30;;;;;;;14.02;2.38;;;19.00;77.50;;;;;;10282670;28;20703;-83
2023/07/14 20:22:33;;;;;;;7.05;2.83;;;19.00;81.50;;;;;;10276058;28;20343;-84
2023/07/14 20:27:36;;;;;;;4.97;3.10;;;18.80;81.70;;;;;;10281099;28;20242;-84
2023/07/14 20:32:39;;;;;;;2.15;1.73;;;19.00;85.60;;;;;;10285146;28;20256;-84
2023/07/14 20:37:41;;;;;;;8.40;2.92;;;18.90;88.40;;;;;;10293083;28;20206;-84
2023/07/14 20:42:44;;;;;;;6.57;2.42;;;;;;;;;;10291801;28;20261;-84
2023/07/14 20:47:47;;;;;;;8.40;3.85;;;;;;;;;;10286318;28;20241;-82
2023/07/14 20:52:52;;;;;;;4.25;2.90;;;;;;;;;;10291990;28;20230;-83
2023/07/14 20:57:54;;;;;;;14.40;3.67;;;18.20;90.00;;;;;;10293868;28;20583;-82
2023/07/14 21:02:57;;;;;;;13.13;6.80;;;18.20;91.20;;;;;;10283475;28;20241;-83
2023/07/14 21:07:59;;;;;;;9.63;6.72;;;18.00;91.70;;;;;;10291396;28;20656;-83
2023/07/14 21:13:04;;;;;;;4.97;3.53;;;18.00;92.40;;;;;;10293828;28;20292;-85
2023/07/14 21:18:16;;;;;;;3.78;3.17;;;18.10;92.20;;;;;;10289353;28;20237;-85
2023/07/14 21:23:28;;;;;;;8.50;3.72;;;18.00;91.90;;;;;;10283183;28;20616;-85
2023/07/14 21:28:31;;;;;;;5.63;3.15;;;18.10;93.00;;;;;;10290272;28;20296;-87
2023/07/14 21:33:40;;;;;;;6.35;3.40;;;17.80;93.40;;;;;;10274453;28;20261;-87
2023/07/14 21:38:43;;;;;;;9.63;3.55;;;;;;;;;;10290913;28;20296;-88
2023/07/14 21:43:48;;;;;;;5.97;3.65;;;17.50;93.80;;;;;;10285315;28;20292;-89
2023/07/14 21:48:51;;;;;;;4.30;3.20;;;17.30;95.00;;;;;;10274766;28;20732;-89
2023/07/14 21:53:54;;;;;;;11.27;3.58;;;17.50;94.80;;;;;;10281742;28;20257;-82
2023/07/14 21:58:57;;;;;;;4.22;2.70;;;17.40;95.20;;;;;;10279195;28;20245;-81
2023/07/14 22:04:04;;;;;;;3.10;2.78;;;17.10;95.70;;;;;;10287117;28;20605;-81
2023/07/14 22:09:07;;;;;;;3.45;2.92;;;17.10;96.10;;;;;;10272134;28;20253;-81
2023/07/14 22:14:18;;;;;;;5.03;3.00;;;17.30;96.50;;;;;;10270223;28;20281;-83
2023/07/14 22:19:21;;;;;;;4.20;3.00;;;16.80;96.20;;;;;;10269117;28;20320;-83
2023/07/14 22:24:23;;;;;;;7.07;3.25;;;16.80;97.00;;;;;;10285811;28;20249;-83
2023/07/14 22:29:26;;;;;;;5.32;3.38;;;16.90;97.00;;;;;;10287051;28;20292;-82
2023/07/14 22:34:29;;;;;;;6.40;3.42;;;16.70;96.70;;;;;;10268830;28;20315;-82
2023/07/14 22:39:32;;;;;;;5.63;2.85;;;16.50;98.10;;;;;;10286717;28;20257;-82
2023/07/14 22:44:34;;;;;;;3.40;2.78;;;16.40;98.80;;;;;;10286573;28;20300;-82
2023/07/14 22:49:37;;;;;;;2.92;2.65;;;16.80;98.40;;;;;;10270091;28;20466;-82
2023/07/14 22:54:40;;;;;;;4.93;2.90;;;16.50;98.50;;;;;;10269483;28;20396;-82
2023/07/14 22:59:42;;;;;;;7.60;2.38;;;16.50;98.40;;;;;;10285458;28;20292;-82
2023/07/14 23:04:45;;;;;;;2.88;2.50;;;16.50;99.60;;;;;;10297457;28;20240;-82
2023/07/14 23:09:47;;;;;;;3.65;3.05;;;16.50;99.10;;;;;;10326208;28;20244;-82
2023/07/14 23:14:50;;;;;;;6.07;2.80;;;16.30;98.50;;;;;;10297149;28;21046;-82
2023/07/14 23:19:52;;;;;;;6.50;2.95;;;16.30;98.70;;;;;;10286063;28;20237;-82
2023/07/14 23:24:55;;;;;;;7.15;3.35;;;;;;;;;;10265798;28;20744;-82
2023/07/14 23:29:57;;;;;;;3.15;2.70;;;15.70;99.20;;;;;;10268518;28;20292;-82
2023/07/14 23:35:00;;;;;;;5.60;3.25;;;15.90;99.90;;;;;;10285294;28;20296;-82
2023/07/14 23:40:03;;;;;;;3.00;2.70;;;16.00;99.80;;;;;;10248288;28;20261;-82
2023/07/14 23:45:30;;;;;;;5.32;2.92;;;15.80;99.90;;;;;;10285633;28;20268;-82
2023/07/14 23:50:33;;;;;;;2.00;1.90;;;16.00;99.90;;;;;;10254626;28;20783;-82
2023/07/14 23:55:36;;;;;;;4.32;2.95;;;16.10;99.90;;;;;;10268472;28;20253;-82
